sensor_id;sensor_type;location;lat;lon;timestamp;P1;durP1;ratioP1;P2;durP2;ratioP2
10880;SDS011;5493;48.884;8.338;2022-08-19T00:01:16;10.35;;;9.35;;
10880;SDS011;5493;48.884;8.338;2022-08-19T00:03:44;10.32;;;9.30;;
10880;SDS011;5493;48.884;8.338;2022-08-19T00:06:10;9.55;;;8.65;;
10880;SDS011;5493;48.884;8.338;2022-08-19T00:08:37;9.23;;;8.32;;
10880;SDS011;5493;48.884;8.338;2022-08-19T00:11:03;9.23;;;8.20;;
10880;SDS011;5493;48.884;8.338;2022-08-19T00:13:31;9.52;;;8.52;;
10880;SDS011;5493;48.884;8.338;2022-08-19T00:15:57;10.45;;;9.02;;
10880;SDS011;5493;48.884;8.338;2022-08-19T00:18:25;9.93;;;8.93;;
10880;SDS011;5493;48.884;8.338;2022-08-19T00:20:53;9.32;;;8.32;;
10880;SDS011;5493;48.884;8.338;2022-08-19T00:23:20;9.90;;;8.90;;
10880;SDS011;5493;48.884;8.338;2022-08-19T00:25:47;9.95;;;8.70;;
10880;SDS011;5493;48.884;8.338;2022-08-19T00:28:13;9.55;;;8.15;;
10880;SDS011;5493;48.884;8.338;2022-08-19T00:30:40;9.65;;;8.65;;
10880;SDS011;5493;48.884;8.338;2022-08-19T00:33:06;10.40;;;9.40;;
10880;SDS011;5493;48.884;8.338;2022-08-19T00:35:33;12.02;;;9.35;;
10880;SDS011;5493;48.884;8.338;2022-08-19T00:38:01;9.80;;;8.85;;
10880;SDS011;5493;48.884;8.338;2022-08-19T00:40:28;9.50;;;8.57;;
10880;SDS011;5493;48.884;8.338;2022-08-19T00:42:55;10.00;;;9.00;;
10880;SDS011;5493;48.884;8.338;2022-08-19T00:45:23;9.68;;;8.77;;
10880;SDS011;5493;48.884;8.338;2022-08-19T00:47:51;10.05;;;9.05;;
10880;SDS011;5493;48.884;8.338;2022-08-19T00:50:18;9.10;;;8.20;;
10880;SDS011;5493;48.884;8.338;2022-08-19T00:52:48;9.60;;;8.70;;
10880;SDS011;5493;48.884;8.338;2022-08-19T00:55:19;9.60;;;8.65;;
10880;SDS011;5493;48.884;8.338;2022-08-19T00:57:48;10.10;;;9.10;;
10880;SDS011;5493;48.884;8.338;2022-08-19T01:00:19;10.43;;;9.32;;
10880;SDS011;5493;48.884;8.338;2022-08-19T01:02:47;10.45;;;9.35;;
10880;SDS011;5493;48.884;8.338;2022-08-19T01:05:14;10.38;;;8.90;;
10880;SDS011;5493;48.884;8.338;2022-08-19T01:07:45;9.18;;;8.32;;
10880;SDS011;5493;48.884;8.338;2022-08-19T01:10:14;9.43;;;8.52;;
10880;SDS011;5493;48.884;8.338;2022-08-19T01:12:47;9.55;;;8.57;;
10880;SDS011;5493;48.884;8.338;2022-08-19T01:15:16;10.45;;;9.35;;
10880;SDS011;5493;48.884;8.338;2022-08-19T01:17:45;9.70;;;8.70;;
10880;SDS011;5493;48.884;8.338;2022-08-19T01:20:14;9.30;;;8.50;;
10880;SDS011;5493;48.884;8.338;2022-08-19T01:22:46;9.45;;;8.55;;
10880;SDS011;5493;48.884;8.338;2022-08-19T01:25:14;11.20;;;8.80;;
10880;SDS011;5493;48.884;8.338;2022-08-19T01:27:42;9.57;;;8.57;;
10880;SDS011;5493;48.884;8.338;2022-08-19T01:30:11;9.73;;;8.82;;
10880;SDS011;5493;48.884;8.338;2022-08-19T01:32:38;9.82;;;8.82;;
10880;SDS011;5493;48.884;8.338;2022-08-19T01:35:05;10.45;;;8.45;;
10880;SDS011;5493;48.884;8.338;2022-08-19T01:37:41;9.20;;;8.40;;
10880;SDS011;5493;48.884;8.338;2022-08-19T01:40:10;9.35;;;8.45;;
10880;SDS011;5493;48.884;8.338;2022-08-19T01:42:37;10.25;;;9.25;;
10880;SDS011;5493;48.884;8.338;2022-08-19T01:45:05;11.82;;;9.07;;
10880;SDS011;5493;48.884;8.338;2022-08-19T01:47:33;10.57;;;8.98;;
10880;SDS011;5493;48.884;8.338;2022-08-19T01:50:01;9.73;;;8.82;;
10880;SDS011;5493;48.884;8.338;2022-08-19T01:52:27;9.50;;;8.60;;
10880;SDS011;5493;48.884;8.338;2022-08-19T01:54:54;10.65;;;9.55;;
10880;SDS011;5493;48.884;8.338;2022-08-19T01:57:22;10.25;;;9.13;;
10880;SDS011;5493;48.884;8.338;2022-08-19T01:59:49;9.93;;;8.93;;
10880;SDS011;5493;48.884;8.338;2022-08-19T02:02:15;9.77;;;8.85;;
10880;SDS011;5493;48.884;8.338;2022-08-19T02:04:42;10.18;;;9.18;;
10880;SDS011;5493;48.884;8.338;2022-08-19T02:07:10;10.10;;;9.07;;
10880;SDS011;5493;48.884;8.338;2022-08-19T02:09:37;9.93;;;9.02;;
10880;SDS011;5493;48.884;8.338;2022-08-19T02:12:04;9.82;;;8.75;;
10880;SDS011;5493;48.884;8.338;2022-08-19T02:14:34;10.40;;;9.10;;
10880;SDS011;5493;48.884;8.338;2022-08-19T02:17:01;9.65;;;8.75;;
10880;SDS011;5493;48.884;8.338;2022-08-19T02:19:28;10.63;;;9.07;;
10880;SDS011;5493;48.884;8.338;2022-08-19T02:21:57;10.60;;;9.50;;
10880;SDS011;5493;48.884;8.338;2022-08-19T02:24:24;10.23;;;9.23;;
10880;SDS011;5493;48.884;8.338;2022-08-19T02:26:51;10.93;;;9.65;;
10880;SDS011;5493;48.884;8.338;2022-08-19T02:29:17;10.45;;;9.00;;
10880;SDS011;5493;48.884;8.338;2022-08-19T02:31:45;10.60;;;9.52;;
10880;SDS011;5493;48.884;8.338;2022-08-19T02:34:12;10.73;;;8.52;;
10880;SDS011;5493;48.884;8.338;2022-08-19T02:36:39;10.55;;;9.05;;
10880;SDS011;5493;48.884;8.338;2022-08-19T02:39:05;10.40;;;9.40;;
10880;SDS011;5493;48.884;8.338;2022-08-19T02:41:32;11.05;;;9.55;;
10880;SDS011;5493;48.884;8.338;2022-08-19T02:44:00;11.57;;;10.18;;
10880;SDS011;5493;48.884;8.338;2022-08-19T02:46:29;10.60;;;9.55;;
10880;SDS011;5493;48.884;8.338;2022-08-19T02:49:00;10.45;;;9.48;;
10880;SDS011;5493;48.884;8.338;2022-08-19T02:51:33;10.77;;;9.68;;
10880;SDS011;5493;48.884;8.338;2022-08-19T02:54:01;10.18;;;9.07;;
10880;SDS011;5493;48.884;8.338;2022-08-19T02:56:28;10.77;;;9.68;;
10880;SDS011;5493;48.884;8.338;2022-08-19T02:58:55;10.90;;;9.85;;
10880;SDS011;5493;48.884;8.338;2022-08-19T03:01:24;11.23;;;10.10;;
10880;SDS011;5493;48.884;8.338;2022-08-19T03:03:53;11.70;;;10.55;;
10880;SDS011;5493;48.884;8.338;2022-08-19T03:06:21;11.65;;;10.25;;
10880;SDS011;5493;48.884;8.338;2022-08-19T03:08:48;11.32;;;10.13;;
10880;SDS011;5493;48.884;8.338;2022-08-19T03:11:16;11.88;;;10.68;;
10880;SDS011;5493;48.884;8.338;2022-08-19T03:13:44;12.68;;;11.38;;
10880;SDS011;5493;48.884;8.338;2022-08-19T03:16:14;13.18;;;11.70;;
10880;SDS011;5493;48.884;8.338;2022-08-19T03:18:41;12.88;;;11.60;;
10880;SDS011;5493;48.884;8.338;2022-08-19T03:21:08;12.75;;;11.45;;
10880;SDS011;5493;48.884;8.338;2022-08-19T03:23:36;12.35;;;11.15;;
10880;SDS011;5493;48.884;8.338;2022-08-19T03:26:03;13.35;;;12.05;;
10880;SDS011;5493;48.884;8.338;2022-08-19T03:28:30;13.68;;;11.50;;
10880;SDS011;5493;48.884;8.338;2022-08-19T03:30:59;14.57;;;11.95;;
10880;SDS011;5493;48.884;8.338;2022-08-19T03:33:27;12.15;;;10.90;;
10880;SDS011;5493;48.884;8.338;2022-08-19T03:35:59;12.52;;;11.32;;
10880;SDS011;5493;48.884;8.338;2022-08-19T03:38:32;12.68;;;11.35;;
10880;SDS011;5493;48.884;8.338;2022-08-19T03:41:03;14.25;;;12.10;;
10880;SDS011;5493;48.884;8.338;2022-08-19T03:43:33;13.45;;;11.00;;
10880;SDS011;5493;48.884;8.338;2022-08-19T03:46:01;14.48;;;12.32;;
10880;SDS011;5493;48.884;8.338;2022-08-19T03:48:29;13.70;;;12.13;;
10880;SDS011;5493;48.884;8.338;2022-08-19T03:50:56;13.27;;;11.18;;
10880;SDS011;5493;48.884;8.338;2022-08-19T03:53:24;13.40;;;12.00;;
10880;SDS011;5493;48.884;8.338;2022-08-19T03:55:51;12.63;;;11.30;;
10880;SDS011;5493;48.884;8.338;2022-08-19T03:58:19;12.97;;;11.67;;
10880;SDS011;5493;48.884;8.338;2022-08-19T04:00:46;13.07;;;11.70;;
10880;SDS011;5493;48.884;8.338;2022-08-19T04:03:12;12.50;;;11.30;;
10880;SDS011;5493;48.884;8.338;2022-08-19T04:05:39;12.48;;;11.27;;
10880;SDS011;5493;48.884;8.338;2022-08-19T04:08:05;13.88;;;12.02;;
10880;SDS011;5493;48.884;8.338;2022-08-19T04:10:35;13.70;;;12.30;;
10880;SDS011;5493;48.884;8.338;2022-08-19T04:13:02;12.98;;;11.68;;
10880;SDS011;5493;48.884;8.338;2022-08-19T04:15:31;12.85;;;11.55;;
10880;SDS011;5493;48.884;8.338;2022-08-19T04:18:04;13.27;;;11.88;;
10880;SDS011;5493;48.884;8.338;2022-08-19T04:20:32;12.90;;;11.00;;
10880;SDS011;5493;48.884;8.338;2022-08-19T04:22:59;13.00;;;11.70;;
10880;SDS011;5493;48.884;8.338;2022-08-19T04:25:25;12.63;;;11.32;;
10880;SDS011;5493;48.884;8.338;2022-08-19T04:27:52;13.07;;;11.77;;
10880;SDS011;5493;48.884;8.338;2022-08-19T04:30:19;14.05;;;12.65;;
10880;SDS011;5493;48.884;8.338;2022-08-19T04:32:48;14.95;;;12.35;;
10880;SDS011;5493;48.884;8.338;2022-08-19T04:35:15;12.70;;;11.13;;
10880;SDS011;5493;48.884;8.338;2022-08-19T04:37:42;12.23;;;11.02;;
10880;SDS011;5493;48.884;8.338;2022-08-19T04:40:08;13.52;;;12.13;;
10880;SDS011;5493;48.884;8.338;2022-08-19T04:42:53;13.73;;;12.32;;
10880;SDS011;5493;48.884;8.338;2022-08-19T04:45:19;13.50;;;12.02;;
10880;SDS011;5493;48.884;8.338;2022-08-19T04:47:47;14.50;;;12.65;;
10880;SDS011;5493;48.884;8.338;2022-08-19T04:50:15;14.20;;;12.25;;
10880;SDS011;5493;48.884;8.338;2022-08-19T04:52:41;13.20;;;11.77;;
10880;SDS011;5493;48.884;8.338;2022-08-19T04:55:08;14.77;;;12.50;;
10880;SDS011;5493;48.884;8.338;2022-08-19T04:57:35;14.82;;;12.52;;
10880;SDS011;5493;48.884;8.338;2022-08-19T05:00:06;14.23;;;12.35;;
10880;SDS011;5493;48.884;8.338;2022-08-19T05:02:34;13.02;;;11.63;;
10880;SDS011;5493;48.884;8.338;2022-08-19T05:05:02;13.52;;;12.10;;
10880;SDS011;5493;48.884;8.338;2022-08-19T05:07:29;13.60;;;12.02;;
10880;SDS011;5493;48.884;8.338;2022-08-19T05:09:56;13.68;;;12.20;;
10880;SDS011;5493;48.884;8.338;2022-08-19T05:12:22;12.38;;;11.18;;
10880;SDS011;5493;48.884;8.338;2022-08-19T05:14:49;13.57;;;12.13;;
10880;SDS011;5493;48.884;8.338;2022-08-19T05:17:16;14.70;;;12.13;;
10880;SDS011;5493;48.884;8.338;2022-08-19T05:19:43;13.07;;;11.32;;
10880;SDS011;5493;48.884;8.338;2022-08-19T05:22:30;14.50;;;12.35;;
10880;SDS011;5493;48.884;8.338;2022-08-19T05:25:01;14.30;;;12.80;;
10880;SDS011;5493;48.884;8.338;2022-08-19T05:27:30;14.30;;;12.80;;
10880;SDS011;5493;48.884;8.338;2022-08-19T05:29:57;13.48;;;12.07;;
10880;SDS011;5493;48.884;8.338;2022-08-19T05:32:24;14.60;;;13.10;;
10880;SDS011;5493;48.884;8.338;2022-08-19T05:34:50;14.38;;;12.88;;
10880;SDS011;5493;48.884;8.338;2022-08-19T05:37:17;16.60;;;12.40;;
10880;SDS011;5493;48.884;8.338;2022-08-19T05:39:45;16.48;;;13.45;;
10880;SDS011;5493;48.884;8.338;2022-08-19T05:42:12;14.93;;;13.38;;
10880;SDS011;5493;48.884;8.338;2022-08-19T05:44:39;14.32;;;12.82;;
10880;SDS011;5493;48.884;8.338;2022-08-19T05:47:09;14.27;;;12.80;;
10880;SDS011;5493;48.884;8.338;2022-08-19T05:49:37;15.60;;;13.25;;
10880;SDS011;5493;48.884;8.338;2022-08-19T05:52:04;16.02;;;13.60;;
10880;SDS011;5493;48.884;8.338;2022-08-19T05:54:31;15.77;;;13.15;;
10880;SDS011;5493;48.884;8.338;2022-08-19T05:57:00;15.32;;;13.52;;
10880;SDS011;5493;48.884;8.338;2022-08-19T05:59:27;14.82;;;13.35;;
10880;SDS011;5493;48.884;8.338;2022-08-19T06:01:54;13.77;;;12.38;;
10880;SDS011;5493;48.884;8.338;2022-08-19T06:04:22;13.82;;;12.40;;
10880;SDS011;5493;48.884;8.338;2022-08-19T06:06:50;16.45;;;12.98;;
10880;SDS011;5493;48.884;8.338;2022-08-19T06:09:18;14.27;;;12.70;;
10880;SDS011;5493;48.884;8.338;2022-08-19T06:11:46;13.10;;;11.73;;
10880;SDS011;5493;48.884;8.338;2022-08-19T06:14:20;16.52;;;13.55;;
10880;SDS011;5493;48.884;8.338;2022-08-19T06:16:49;15.27;;;12.93;;
10880;SDS011;5493;48.884;8.338;2022-08-19T06:19:17;14.00;;;12.55;;
10880;SDS011;5493;48.884;8.338;2022-08-19T06:21:46;13.63;;;12.13;;
10880;SDS011;5493;48.884;8.338;2022-08-19T06:24:15;15.45;;;12.32;;
10880;SDS011;5493;48.884;8.338;2022-08-19T06:26:44;13.35;;;11.95;;
10880;SDS011;5493;48.884;8.338;2022-08-19T06:29:13;13.50;;;12.10;;
10880;SDS011;5493;48.884;8.338;2022-08-19T06:31:42;14.07;;;12.68;;
10880;SDS011;5493;48.884;8.338;2022-08-19T06:34:10;14.88;;;12.38;;
10880;SDS011;5493;48.884;8.338;2022-08-19T06:36:38;14.35;;;12.90;;
10880;SDS011;5493;48.884;8.338;2022-08-19T06:39:08;12.60;;;11.35;;
10880;SDS011;5493;48.884;8.338;2022-08-19T06:41:37;14.85;;;12.57;;
10880;SDS011;5493;48.884;8.338;2022-08-19T06:44:06;13.05;;;11.73;;
10880;SDS011;5493;48.884;8.338;2022-08-19T06:46:33;15.18;;;12.40;;
10880;SDS011;5493;48.884;8.338;2022-08-19T06:49:01;14.52;;;13.00;;
10880;SDS011;5493;48.884;8.338;2022-08-19T06:51:29;14.55;;;12.63;;
10880;SDS011;5493;48.884;8.338;2022-08-19T06:53:57;14.23;;;12.48;;
10880;SDS011;5493;48.884;8.338;2022-08-19T06:56:25;14.82;;;12.90;;
10880;SDS011;5493;48.884;8.338;2022-08-19T06:58:56;14.88;;;11.93;;
10880;SDS011;5493;48.884;8.338;2022-08-19T07:01:22;14.98;;;12.55;;
10880;SDS011;5493;48.884;8.338;2022-08-19T07:03:49;17.05;;;12.73;;
10880;SDS011;5493;48.884;8.338;2022-08-19T07:06:17;15.65;;;12.90;;
10880;SDS011;5493;48.884;8.338;2022-08-19T07:08:45;14.20;;;12.32;;
10880;SDS011;5493;48.884;8.338;2022-08-19T07:11:13;14.38;;;12.65;;
10880;SDS011;5493;48.884;8.338;2022-08-19T07:13:44;14.57;;;12.77;;
10880;SDS011;5493;48.884;8.338;2022-08-19T07:16:14;17.05;;;12.88;;
10880;SDS011;5493;48.884;8.338;2022-08-19T07:18:42;14.23;;;12.73;;
10880;SDS011;5493;48.884;8.338;2022-08-19T07:21:10;13.77;;;12.38;;
10880;SDS011;5493;48.884;8.338;2022-08-19T07:23:39;14.73;;;13.10;;
10880;SDS011;5493;48.884;8.338;2022-08-19T07:26:06;14.35;;;12.85;;
10880;SDS011;5493;48.884;8.338;2022-08-19T07:28:33;13.55;;;12.07;;
10880;SDS011;5493;48.884;8.338;2022-08-19T07:31:00;14.52;;;12.98;;
10880;SDS011;5493;48.884;8.338;2022-08-19T07:33:28;14.98;;;13.23;;
10880;SDS011;5493;48.884;8.338;2022-08-19T07:35:57;13.48;;;12.00;;
10880;SDS011;5493;48.884;8.338;2022-08-19T07:38:24;15.52;;;12.43;;
10880;SDS011;5493;48.884;8.338;2022-08-19T07:40:52;14.95;;;12.27;;
10880;SDS011;5493;48.884;8.338;2022-08-19T07:43:18;14.38;;;12.40;;
10880;SDS011;5493;48.884;8.338;2022-08-19T07:45:47;14.00;;;12.60;;
10880;SDS011;5493;48.884;8.338;2022-08-19T07:48:14;13.48;;;12.18;;
10880;SDS011;5493;48.884;8.338;2022-08-19T07:50:40;13.32;;;11.95;;
10880;SDS011;5493;48.884;8.338;2022-08-19T07:53:07;12.30;;;11.07;;
10880;SDS011;5493;48.884;8.338;2022-08-19T07:55:34;14.30;;;11.90;;
10880;SDS011;5493;48.884;8.338;2022-08-19T07:58:02;14.02;;;12.55;;
10880;SDS011;5493;48.884;8.338;2022-08-19T08:00:29;13.60;;;12.07;;
10880;SDS011;5493;48.884;8.338;2022-08-19T08:02:56;14.82;;;13.00;;
10880;SDS011;5493;48.884;8.338;2022-08-19T08:05:23;14.02;;;12.52;;
10880;SDS011;5493;48.884;8.338;2022-08-19T08:08:07;13.55;;;12.15;;
10880;SDS011;5493;48.884;8.338;2022-08-19T08:10:51;12.57;;;11.02;;
10880;SDS011;5493;48.884;8.338;2022-08-19T08:13:19;12.48;;;11.20;;
10880;SDS011;5493;48.884;8.338;2022-08-19T08:15:45;14.30;;;12.10;;
10880;SDS011;5493;48.884;8.338;2022-08-19T08:18:12;12.32;;;11.02;;
10880;SDS011;5493;48.884;8.338;2022-08-19T08:20:39;11.18;;;10.07;;
10880;SDS011;5493;48.884;8.338;2022-08-19T08:23:05;13.32;;;10.73;;
10880;SDS011;5493;48.884;8.338;2022-08-19T08:25:50;11.52;;;10.38;;
10880;SDS011;5493;48.884;8.338;2022-08-19T08:28:21;10.85;;;9.73;;
10880;SDS011;5493;48.884;8.338;2022-08-19T08:30:49;11.32;;;10.13;;
10880;SDS011;5493;48.884;8.338;2022-08-19T08:33:17;10.70;;;9.70;;
10880;SDS011;5493;48.884;8.338;2022-08-19T08:35:46;11.88;;;10.70;;
10880;SDS011;5493;48.884;8.338;2022-08-19T08:38:13;8.70;;;7.90;;
10880;SDS011;5493;48.884;8.338;2022-08-19T08:40:42;10.57;;;9.27;;
10880;SDS011;5493;48.884;8.338;2022-08-19T08:43:13;9.38;;;8.40;;
10880;SDS011;5493;48.884;8.338;2022-08-19T08:45:50;10.30;;;8.40;;
10880;SDS011;5493;48.884;8.338;2022-08-19T08:48:22;8.82;;;7.93;;
10880;SDS011;5493;48.884;8.338;2022-08-19T08:50:53;9.38;;;7.90;;
10880;SDS011;5493;48.884;8.338;2022-08-19T08:53:21;8.30;;;7.47;;
10880;SDS011;5493;48.884;8.338;2022-08-19T08:55:49;7.32;;;6.63;;
10880;SDS011;5493;48.884;8.338;2022-08-19T08:58:17;8.27;;;7.53;;
10880;SDS011;5493;48.884;8.338;2022-08-19T09:00:52;7.97;;;7.18;;
10880;SDS011;5493;48.884;8.338;2022-08-19T09:03:19;7.13;;;6.53;;
10880;SDS011;5493;48.884;8.338;2022-08-19T09:05:49;8.00;;;7.20;;
10880;SDS011;5493;48.884;8.338;2022-08-19T09:08:25;7.63;;;6.90;;
10880;SDS011;5493;48.884;8.338;2022-08-19T09:10:59;7.40;;;6.68;;
10880;SDS011;5493;48.884;8.338;2022-08-19T09:13:34;8.02;;;6.47;;
10880;SDS011;5493;48.884;8.338;2022-08-19T09:16:09;7.25;;;6.30;;
10880;SDS011;5493;48.884;8.338;2022-08-19T09:18:39;6.78;;;6.07;;
10880;SDS011;5493;48.884;8.338;2022-08-19T09:21:07;8.23;;;6.15;;
10880;SDS011;5493;48.884;8.338;2022-08-19T09:23:34;6.97;;;6.35;;
10880;SDS011;5493;48.884;8.338;2022-08-19T09:26:00;6.70;;;6.07;;
10880;SDS011;5493;48.884;8.338;2022-08-19T09:28:27;7.20;;;6.32;;
10880;SDS011;5493;48.884;8.338;2022-08-19T09:30:55;7.00;;;5.68;;
10880;SDS011;5493;48.884;8.338;2022-08-19T09:33:22;6.18;;;5.57;;
10880;SDS011;5493;48.884;8.338;2022-08-19T09:35:48;9.73;;;6.60;;
10880;SDS011;5493;48.884;8.338;2022-08-19T09:38:15;6.10;;;5.60;;
10880;SDS011;5493;48.884;8.338;2022-08-19T09:40:41;6.55;;;5.95;;
10880;SDS011;5493;48.884;8.338;2022-08-19T09:43:08;5.65;;;5.10;;
10880;SDS011;5493;48.884;8.338;2022-08-19T09:45:35;5.43;;;4.90;;
10880;SDS011;5493;48.884;8.338;2022-08-19T09:48:03;5.40;;;4.90;;
10880;SDS011;5493;48.884;8.338;2022-08-19T09:50:31;7.78;;;4.75;;
10880;SDS011;5493;48.884;8.338;2022-08-19T09:53:00;4.93;;;4.50;;
10880;SDS011;5493;48.884;8.338;2022-08-19T09:55:27;5.43;;;4.55;;
10880;SDS011;5493;48.884;8.338;2022-08-19T09:57:53;4.93;;;4.43;;
10880;SDS011;5493;48.884;8.338;2022-08-19T10:00:20;5.13;;;4.60;;
10880;SDS011;5493;48.884;8.338;2022-08-19T10:02:46;5.90;;;5.30;;
10880;SDS011;5493;48.884;8.338;2022-08-19T10:05:14;4.88;;;4.47;;
10880;SDS011;5493;48.884;8.338;2022-08-19T10:07:58;7.93;;;4.75;;
10880;SDS011;5493;48.884;8.338;2022-08-19T10:10:25;5.68;;;4.38;;
10880;SDS011;5493;48.884;8.338;2022-08-19T10:12:52;6.88;;;3.90;;
10880;SDS011;5493;48.884;8.338;2022-08-19T10:15:19;8.18;;;4.18;;
10880;SDS011;5493;48.884;8.338;2022-08-19T10:17:46;5.00;;;4.30;;
10880;SDS011;5493;48.884;8.338;2022-08-19T10:20:12;6.65;;;4.47;;
10880;SDS011;5493;48.884;8.338;2022-08-19T10:22:40;4.05;;;3.75;;
10880;SDS011;5493;48.884;8.338;2022-08-19T10:25:08;6.28;;;3.88;;
10880;SDS011;5493;48.884;8.338;2022-08-19T10:27:35;5.15;;;3.80;;
10880;SDS011;5493;48.884;8.338;2022-08-19T10:30:02;4.38;;;3.97;;
10880;SDS011;5493;48.884;8.338;2022-08-19T10:32:30;4.18;;;3.78;;
10880;SDS011;5493;48.884;8.338;2022-08-19T10:34:56;4.10;;;3.80;;
10880;SDS011;5493;48.884;8.338;2022-08-19T10:37:23;4.07;;;3.78;;
10880;SDS011;5493;48.884;8.338;2022-08-19T10:39:51;5.85;;;4.10;;
10880;SDS011;5493;48.884;8.338;2022-08-19T10:42:17;4.95;;;4.45;;
10880;SDS011;5493;48.884;8.338;2022-08-19T10:44:45;6.95;;;4.28;;
10880;SDS011;5493;48.884;8.338;2022-08-19T10:47:13;4.18;;;3.78;;
10880;SDS011;5493;48.884;8.338;2022-08-19T10:49:39;5.65;;;4.20;;
10880;SDS011;5493;48.884;8.338;2022-08-19T10:52:20;4.88;;;4.30;;
10880;SDS011;5493;48.884;8.338;2022-08-19T10:55:04;4.68;;;4.28;;
10880;SDS011;5493;48.884;8.338;2022-08-19T10:57:49;5.00;;;4.00;;
10880;SDS011;5493;48.884;8.338;2022-08-19T11:00:18;4.53;;;4.10;;
10880;SDS011;5493;48.884;8.338;2022-08-19T11:02:45;5.00;;;4.50;;
10880;SDS011;5493;48.884;8.338;2022-08-19T11:05:11;4.70;;;4.20;;
10880;SDS011;5493;48.884;8.338;2022-08-19T11:07:39;4.70;;;4.30;;
10880;SDS011;5493;48.884;8.338;2022-08-19T11:10:08;4.30;;;3.90;;
10880;SDS011;5493;48.884;8.338;2022-08-19T11:12:39;4.53;;;4.13;;
10880;SDS011;5493;48.884;8.338;2022-08-19T11:15:06;4.75;;;4.30;;
10880;SDS011;5493;48.884;8.338;2022-08-19T11:17:36;4.80;;;4.40;;
10880;SDS011;5493;48.884;8.338;2022-08-19T11:20:05;5.18;;;4.55;;
10880;SDS011;5493;48.884;8.338;2022-08-19T11:22:33;5.93;;;4.95;;
10880;SDS011;5493;48.884;8.338;2022-08-19T11:24:59;7.00;;;4.68;;
10880;SDS011;5493;48.884;8.338;2022-08-19T11:27:28;6.60;;;4.80;;
10880;SDS011;5493;48.884;8.338;2022-08-19T11:29:55;4.72;;;4.32;;
10880;SDS011;5493;48.884;8.338;2022-08-19T11:32:22;5.25;;;4.50;;
10880;SDS011;5493;48.884;8.338;2022-08-19T11:34:48;5.57;;;4.32;;
10880;SDS011;5493;48.884;8.338;2022-08-19T11:37:15;4.50;;;4.20;;
10880;SDS011;5493;48.884;8.338;2022-08-19T11:39:41;5.47;;;4.63;;
10880;SDS011;5493;48.884;8.338;2022-08-19T11:42:08;4.72;;;4.32;;
10880;SDS011;5493;48.884;8.338;2022-08-19T11:44:50;4.72;;;4.30;;
10880;SDS011;5493;48.884;8.338;2022-08-19T11:47:17;5.03;;;4.50;;
10880;SDS011;5493;48.884;8.338;2022-08-19T11:49:45;4.95;;;4.55;;
10880;SDS011;5493;48.884;8.338;2022-08-19T11:52:11;5.35;;;4.40;;
10880;SDS011;5493;48.884;8.338;2022-08-19T11:54:38;6.90;;;4.95;;
10880;SDS011;5493;48.884;8.338;2022-08-19T11:57:04;5.22;;;4.72;;
10880;SDS011;5493;48.884;8.338;2022-08-19T11:59:31;5.07;;;4.60;;
10880;SDS011;5493;48.884;8.338;2022-08-19T12:01:59;5.60;;;5.10;;
10880;SDS011;5493;48.884;8.338;2022-08-19T12:04:25;5.43;;;4.93;;
10880;SDS011;5493;48.884;8.338;2022-08-19T12:06:52;6.25;;;5.43;;
10880;SDS011;5493;48.884;8.338;2022-08-19T12:09:18;5.80;;;5.30;;
10880;SDS011;5493;48.884;8.338;2022-08-19T12:11:45;5.68;;;5.18;;
10880;SDS011;5493;48.884;8.338;2022-08-19T12:14:12;6.18;;;5.63;;
10880;SDS011;5493;48.884;8.338;2022-08-19T12:16:39;5.70;;;5.25;;
10880;SDS011;5493;48.884;8.338;2022-08-19T12:19:08;6.15;;;5.55;;
10880;SDS011;5493;48.884;8.338;2022-08-19T12:21:34;5.55;;;5.05;;
10880;SDS011;5493;48.884;8.338;2022-08-19T12:24:02;5.65;;;5.13;;
10880;SDS011;5493;48.884;8.338;2022-08-19T12:26:30;6.68;;;5.20;;
10880;SDS011;5493;48.884;8.338;2022-08-19T12:28:57;5.40;;;5.00;;
10880;SDS011;5493;48.884;8.338;2022-08-19T12:31:25;6.28;;;5.43;;
10880;SDS011;5493;48.884;8.338;2022-08-19T12:33:52;6.45;;;5.78;;
10880;SDS011;5493;48.884;8.338;2022-08-19T12:36:20;6.20;;;5.70;;
10880;SDS011;5493;48.884;8.338;2022-08-19T12:38:48;6.72;;;6.20;;
10880;SDS011;5493;48.884;8.338;2022-08-19T12:41:15;6.78;;;6.18;;
10880;SDS011;5493;48.884;8.338;2022-08-19T12:43:43;6.80;;;6.10;;
10880;SDS011;5493;48.884;8.338;2022-08-19T12:46:10;6.63;;;6.05;;
10880;SDS011;5493;48.884;8.338;2022-08-19T12:48:37;7.57;;;5.57;;
10880;SDS011;5493;48.884;8.338;2022-08-19T12:51:06;7.28;;;6.57;;
10880;SDS011;5493;48.884;8.338;2022-08-19T12:53:36;7.25;;;6.55;;
10880;SDS011;5493;48.884;8.338;2022-08-19T12:56:03;7.13;;;6.45;;
10880;SDS011;5493;48.884;8.338;2022-08-19T12:58:30;7.15;;;6.55;;
10880;SDS011;5493;48.884;8.338;2022-08-19T13:00:59;6.85;;;6.10;;
10880;SDS011;5493;48.884;8.338;2022-08-19T13:03:26;7.10;;;6.43;;
10880;SDS011;5493;48.884;8.338;2022-08-19T13:05:54;6.78;;;6.20;;
10880;SDS011;5493;48.884;8.338;2022-08-19T13:08:21;6.75;;;6.10;;
10880;SDS011;5493;48.884;8.338;2022-08-19T13:10:49;7.50;;;6.07;;
10880;SDS011;5493;48.884;8.338;2022-08-19T13:13:15;6.40;;;5.80;;
10880;SDS011;5493;48.884;8.338;2022-08-19T13:15:42;6.28;;;5.75;;
10880;SDS011;5493;48.884;8.338;2022-08-19T13:18:10;5.88;;;5.28;;
10880;SDS011;5493;48.884;8.338;2022-08-19T13:20:40;5.07;;;4.60;;
10880;SDS011;5493;48.884;8.338;2022-08-19T13:23:07;5.22;;;4.82;;
10880;SDS011;5493;48.884;8.338;2022-08-19T13:25:34;4.93;;;4.53;;
10880;SDS011;5493;48.884;8.338;2022-08-19T13:28:02;4.47;;;4.07;;
10880;SDS011;5493;48.884;8.338;2022-08-19T13:30:31;4.88;;;4.47;;
10880;SDS011;5493;48.884;8.338;2022-08-19T13:33:15;5.85;;;4.07;;
10880;SDS011;5493;48.884;8.338;2022-08-19T13:35:43;3.50;;;3.30;;
10880;SDS011;5493;48.884;8.338;2022-08-19T13:38:12;3.38;;;3.10;;
10880;SDS011;5493;48.884;8.338;2022-08-19T13:40:39;4.10;;;3.28;;
10880;SDS011;5493;48.884;8.338;2022-08-19T13:43:08;4.03;;;3.72;;
10880;SDS011;5493;48.884;8.338;2022-08-19T13:45:35;3.05;;;2.83;;
10880;SDS011;5493;48.884;8.338;2022-08-19T13:48:02;3.03;;;2.70;;
10880;SDS011;5493;48.884;8.338;2022-08-19T13:50:31;3.35;;;2.90;;
10880;SDS011;5493;48.884;8.338;2022-08-19T13:52:59;2.95;;;2.75;;
10880;SDS011;5493;48.884;8.338;2022-08-19T13:55:26;3.75;;;3.17;;
10880;SDS011;5493;48.884;8.338;2022-08-19T13:57:54;3.85;;;3.03;;
10880;SDS011;5493;48.884;8.338;2022-08-19T14:00:23;3.53;;;3.03;;
10880;SDS011;5493;48.884;8.338;2022-08-19T14:02:52;3.42;;;3.13;;
10880;SDS011;5493;48.884;8.338;2022-08-19T14:05:21;3.08;;;2.88;;
10880;SDS011;5493;48.884;8.338;2022-08-19T14:07:48;4.63;;;3.40;;
10880;SDS011;5493;48.884;8.338;2022-08-19T14:10:15;3.35;;;3.10;;
10880;SDS011;5493;48.884;8.338;2022-08-19T14:12:42;3.65;;;3.22;;
10880;SDS011;5493;48.884;8.338;2022-08-19T14:15:09;3.45;;;3.05;;
10880;SDS011;5493;48.884;8.338;2022-08-19T14:17:39;3.67;;;3.38;;
10880;SDS011;5493;48.884;8.338;2022-08-19T14:20:06;3.80;;;3.10;;
10880;SDS011;5493;48.884;8.338;2022-08-19T14:22:34;4.35;;;3.10;;
10880;SDS011;5493;48.884;8.338;2022-08-19T14:25:02;3.30;;;3.10;;
10880;SDS011;5493;48.884;8.338;2022-08-19T14:27:29;3.78;;;3.47;;
10880;SDS011;5493;48.884;8.338;2022-08-19T14:29:56;3.65;;;3.25;;
10880;SDS011;5493;48.884;8.338;2022-08-19T14:32:22;4.90;;;3.30;;
10880;SDS011;5493;48.884;8.338;2022-08-19T14:34:51;5.03;;;3.38;;
10880;SDS011;5493;48.884;8.338;2022-08-19T14:37:17;3.35;;;3.05;;
10880;SDS011;5493;48.884;8.338;2022-08-19T14:39:44;3.35;;;3.05;;
10880;SDS011;5493;48.884;8.338;2022-08-19T14:42:11;3.70;;;3.40;;
10880;SDS011;5493;48.884;8.338;2022-08-19T14:44:39;4.10;;;3.80;;
10880;SDS011;5493;48.884;8.338;2022-08-19T14:47:06;4.32;;;3.35;;
10880;SDS011;5493;48.884;8.338;2022-08-19T14:49:33;5.47;;;3.60;;
10880;SDS011;5493;48.884;8.338;2022-08-19T14:52:01;4.00;;;3.70;;
10880;SDS011;5493;48.884;8.338;2022-08-19T14:54:29;3.70;;;3.40;;
10880;SDS011;5493;48.884;8.338;2022-08-19T14:56:55;3.80;;;3.50;;